sensor_id;sensor_type;location;lat;lon;timestamp;temperature;humidity
53711;DHT22;39605;52.704;6.752;2023-02-14T00:01:49;2.70;99.90
53711;DHT22;39605;52.704;6.752;2023-02-14T00:04:16;2.70;99.90
53711;DHT22;39605;52.704;6.752;2023-02-14T00:06:42;2.70;99.90
53711;DHT22;39605;52.704;6.752;2023-02-14T00:09:14;2.60;99.90
53711;DHT22;39605;52.704;6.752;2023-02-14T00:11:40;2.60;99.90
53711;DHT22;39605;52.704;6.752;2023-02-14T00:14:06;2.50;99.90
53711;DHT22;39605;52.704;6.752;2023-02-14T00:16:51;2.50;99.90
53711;DHT22;39605;52.704;6.752;2023-02-14T00:19:18;2.40;99.90
53711;DHT22;39605;52.704;6.752;2023-02-14T00:21:44;2.50;99.90
53711;DHT22;39605;52.704;6.752;2023-02-14T00:24:13;2.40;99.90
53711;DHT22;39605;52.704;6.752;2023-02-14T00:26:40;2.40;99.90
53711;DHT22;39605;52.704;6.752;2023-02-14T00:29:07;2.40;99.90
53711;DHT22;39605;52.704;6.752;2023-02-14T00:31:34;2.30;99.90
53711;DHT22;39605;52.704;6.752;2023-02-14T00:34:00;2.30;99.90
53711;DHT22;39605;52.704;6.752;2023-02-14T00:36:26;2.20;99.90
53711;DHT22;39605;52.704;6.752;2023-02-14T00:38:51;2.20;99.90
53711;DHT22;39605;52.704;6.752;2023-02-14T00:41:17;2.20;99.90
53711;DHT22;39605;52.704;6.752;2023-02-14T00:43:50;2.20;99.90
53711;DHT22;39605;52.704;6.752;2023-02-14T00:46:17;2.20;99.90
53711;DHT22;39605;52.704;6.752;2023-02-14T00:48:44;2.20;99.90
53711;DHT22;39605;52.704;6.752;2023-02-14T00:51:09;2.20;99.90
53711;DHT22;39605;52.704;6.752;2023-02-14T00:53:36;2.30;99.90
53711;DHT22;39605;52.704;6.752;2023-02-14T00:56:02;2.30;99.90
53711;DHT22;39605;52.704;6.752;2023-02-14T00:58:28;2.30;99.90
53711;DHT22;39605;52.704;6.752;2023-02-14T01:00:54;2.30;99.90
53711;DHT22;39605;52.704;6.752;2023-02-14T01:03:20;2.30;99.90
53711;DHT22;39605;52.704;6.752;2023-02-14T01:05:47;2.30;99.90
53711;DHT22;39605;52.704;6.752;2023-02-14T01:08:12;2.30;99.90
53711;DHT22;39605;52.704;6.752;2023-02-14T01:10:39;2.30;99.90
53711;DHT22;39605;52.704;6.752;2023-02-14T01:13:05;2.40;99.90
53711;DHT22;39605;52.704;6.752;2023-02-14T01:15:31;2.30;99.90
53711;DHT22;39605;52.704;6.752;2023-02-14T01:17:57;2.20;99.90
53711;DHT22;39605;52.704;6.752;2023-02-14T01:20:24;2.20;99.90
53711;DHT22;39605;52.704;6.752;2023-02-14T01:22:50;2.20;99.90
53711;DHT22;39605;52.704;6.752;2023-02-14T01:25:16;2.20;99.90
53711;DHT22;39605;52.704;6.752;2023-02-14T01:27:42;2.20;99.90
53711;DHT22;39605;52.704;6.752;2023-02-14T01:30:08;2.30;99.90
53711;DHT22;39605;52.704;6.752;2023-02-14T01:32:34;2.30;99.90
53711;DHT22;39605;52.704;6.752;2023-02-14T01:35:00;2.40;99.90
53711;DHT22;39605;52.704;6.752;2023-02-14T01:37:26;2.50;99.90
53711;DHT22;39605;52.704;6.752;2023-02-14T01:39:52;2.50;99.90
53711;DHT22;39605;52.704;6.752;2023-02-14T01:42:18;2.60;99.90
53711;DHT22;39605;52.704;6.752;2023-02-14T01:45:05;2.70;99.90
53711;DHT22;39605;52.704;6.752;2023-02-14T01:47:37;2.70;99.90
53711;DHT22;39605;52.704;6.752;2023-02-14T01:50:16;2.60;99.90
53711;DHT22;39605;52.704;6.752;2023-02-14T01:52:47;2.70;99.90
53711;DHT22;39605;52.704;6.752;2023-02-14T01:55:17;2.70;99.90
53711;DHT22;39605;52.704;6.752;2023-02-14T01:57:48;2.70;99.90
53711;DHT22;39605;52.704;6.752;2023-02-14T02:00:15;2.70;99.90
53711;DHT22;39605;52.704;6.752;2023-02-14T02:03:00;2.70;99.90
53711;DHT22;39605;52.704;6.752;2023-02-14T02:05:27;2.60;99.90
53711;DHT22;39605;52.704;6.752;2023-02-14T02:07:56;2.60;99.90
53711;DHT22;39605;52.704;6.752;2023-02-14T02:10:23;2.60;99.90
53711;DHT22;39605;52.704;6.752;2023-02-14T02:12:50;2.60;99.90
53711;DHT22;39605;52.704;6.752;2023-02-14T02:15:16;2.60;99.90
53711;DHT22;39605;52.704;6.752;2023-02-14T02:18:02;2.60;99.90
53711;DHT22;39605;52.704;6.752;2023-02-14T02:26:53;2.50;99.90
53711;DHT22;39605;52.704;6.752;2023-02-14T02:39:58;2.50;99.90
53711;DHT22;39605;52.704;6.752;2023-02-14T02:45:52;2.60;99.90
53711;DHT22;39605;52.704;6.752;2023-02-14T02:51:18;2.50;99.90
53711;DHT22;39605;52.704;6.752;2023-02-14T02:54:30;2.50;99.90
53711;DHT22;39605;52.704;6.752;2023-02-14T02:56:56;2.50;99.90
53711;DHT22;39605;52.704;6.752;2023-02-14T02:59:32;2.60;99.90
53711;DHT22;39605;52.704;6.752;2023-02-14T03:02:29;2.50;99.90
53711;DHT22;39605;52.704;6.752;2023-02-14T03:05:02;2.60;99.90
53711;DHT22;39605;52.704;6.752;2023-02-14T03:07:38;2.50;99.90
53711;DHT22;39605;52.704;6.752;2023-02-14T03:10:11;2.60;99.90
53711;DHT22;39605;52.704;6.752;2023-02-14T03:29:30;2.60;99.90
53711;DHT22;39605;52.704;6.752;2023-02-14T03:35:08;2.50;99.90
53711;DHT22;39605;52.704;6.752;2023-02-14T03:40:12;2.50;99.90
53711;DHT22;39605;52.704;6.752;2023-02-14T03:42:50;2.50;99.90
53711;DHT22;39605;52.704;6.752;2023-02-14T03:45:25;2.50;99.90
53711;DHT22;39605;52.704;6.752;2023-02-14T03:47:55;2.50;99.90
53711;DHT22;39605;52.704;6.752;2023-02-14T03:50:24;2.50;99.90
53711;DHT22;39605;52.704;6.752;2023-02-14T03:52:51;2.50;99.90
53711;DHT22;39605;52.704;6.752;2023-02-14T03:55:25;2.50;99.90
53711;DHT22;39605;52.704;6.752;2023-02-14T03:58:04;2.40;99.90
53711;DHT22;39605;52.704;6.752;2023-02-14T04:00:31;2.50;99.90
53711;DHT22;39605;52.704;6.752;2023-02-14T04:03:02;2.70;99.90
53711;DHT22;39605;52.704;6.752;2023-02-14T04:05:30;2.50;99.90
53711;DHT22;39605;52.704;6.752;2023-02-14T04:07:57;2.50;99.90
53711;DHT22;39605;52.704;6.752;2023-02-14T04:10:24;2.50;99.90
53711;DHT22;39605;52.704;6.752;2023-02-14T04:12:51;2.50;99.90
53711;DHT22;39605;52.704;6.752;2023-02-14T04:15:17;2.50;99.90
53711;DHT22;39605;52.704;6.752;2023-02-14T04:17:43;2.40;99.90
53711;DHT22;39605;52.704;6.752;2023-02-14T04:20:28;2.40;99.90
53711;DHT22;39605;52.704;6.752;2023-02-14T04:22:54;2.40;99.90
53711;DHT22;39605;52.704;6.752;2023-02-14T04:25:21;2.40;99.90
53711;DHT22;39605;52.704;6.752;2023-02-14T04:27:47;2.30;99.90
53711;DHT22;39605;52.704;6.752;2023-02-14T04:30:14;2.40;99.90
53711;DHT22;39605;52.704;6.752;2023-02-14T04:32:42;2.40;99.90
53711;DHT22;39605;52.704;6.752;2023-02-14T04:35:09;2.30;99.90
53711;DHT22;39605;52.704;6.752;2023-02-14T04:37:35;2.40;99.90
53711;DHT22;39605;52.704;6.752;2023-02-14T04:40:00;2.40;99.90
53711;DHT22;39605;52.704;6.752;2023-02-14T04:42:26;2.30;99.90
53711;DHT22;39605;52.704;6.752;2023-02-14T04:44:52;2.30;99.90
53711;DHT22;39605;52.704;6.752;2023-02-14T04:47:18;2.30;99.90
53711;DHT22;39605;52.704;6.752;2023-02-14T04:49:43;2.30;99.90
53711;DHT22;39605;52.704;6.752;2023-02-14T04:52:09;2.40;99.90
53711;DHT22;39605;52.704;6.752;2023-02-14T04:54:34;2.40;99.90
53711;DHT22;39605;52.704;6.752;2023-02-14T04:57:00;2.30;99.90
53711;DHT22;39605;52.704;6.752;2023-02-14T04:59:26;2.30;99.90
53711;DHT22;39605;52.704;6.752;2023-02-14T05:01:52;2.20;99.90
53711;DHT22;39605;52.704;6.752;2023-02-14T05:04:18;2.20;99.90
53711;DHT22;39605;52.704;6.752;2023-02-14T05:06:44;2.20;99.90
53711;DHT22;39605;52.704;6.752;2023-02-14T05:09:09;2.30;99.90
53711;DHT22;39605;52.704;6.752;2023-02-14T05:11:35;2.20;99.90
53711;DHT22;39605;52.704;6.752;2023-02-14T05:14:01;2.10;99.90
53711;DHT22;39605;52.704;6.752;2023-02-14T05:16:26;2.10;99.90
53711;DHT22;39605;52.704;6.752;2023-02-14T05:18:52;2.10;99.90
53711;DHT22;39605;52.704;6.752;2023-02-14T05:21:18;2.20;99.90
53711;DHT22;39605;52.704;6.752;2023-02-14T05:23:44;2.00;99.90
53711;DHT22;39605;52.704;6.752;2023-02-14T05:26:09;2.00;99.90
53711;DHT22;39605;52.704;6.752;2023-02-14T05:28:35;2.10;99.90
53711;DHT22;39605;52.704;6.752;2023-02-14T05:31:01;2.10;99.90
53711;DHT22;39605;52.704;6.752;2023-02-14T05:33:26;2.10;99.90
53711;DHT22;39605;52.704;6.752;2023-02-14T05:35:52;2.00;99.90
53711;DHT22;39605;52.704;6.752;2023-02-14T05:38:18;2.00;99.90
53711;DHT22;39605;52.704;6.752;2023-02-14T05:40:45;2.00;99.90
53711;DHT22;39605;52.704;6.752;2023-02-14T05:43:11;2.00;99.90
53711;DHT22;39605;52.704;6.752;2023-02-14T05:45:36;2.00;99.90
53711;DHT22;39605;52.704;6.752;2023-02-14T05:48:02;2.00;99.90
53711;DHT22;39605;52.704;6.752;2023-02-14T05:50:28;1.90;99.90
53711;DHT22;39605;52.704;6.752;2023-02-14T05:52:54;1.90;99.90
53711;DHT22;39605;52.704;6.752;2023-02-14T05:55:20;1.90;99.90
53711;DHT22;39605;52.704;6.752;2023-02-14T05:57:46;1.90;99.90
53711;DHT22;39605;52.704;6.752;2023-02-14T06:00:12;1.90;99.90
53711;DHT22;39605;52.704;6.752;2023-02-14T06:02:38;1.80;99.90
53711;DHT22;39605;52.704;6.752;2023-02-14T06:05:05;1.90;99.90
53711;DHT22;39605;52.704;6.752;2023-02-14T06:07:30;1.80;99.90
53711;DHT22;39605;52.704;6.752;2023-02-14T06:09:59;1.80;99.90
53711;DHT22;39605;52.704;6.752;2023-02-14T06:12:25;1.70;99.90
53711;DHT22;39605;52.704;6.752;2023-02-14T06:14:50;1.70;99.90
53711;DHT22;39605;52.704;6.752;2023-02-14T06:17:16;1.70;99.90
53711;DHT22;39605;52.704;6.752;2023-02-14T06:19:42;1.60;99.90
53711;DHT22;39605;52.704;6.752;2023-02-14T06:22:09;1.60;99.90
53711;DHT22;39605;52.704;6.752;2023-02-14T06:24:35;1.60;99.90
53711;DHT22;39605;52.704;6.752;2023-02-14T06:27:01;1.70;99.90
53711;DHT22;39605;52.704;6.752;2023-02-14T06:29:27;1.60;99.90
53711;DHT22;39605;52.704;6.752;2023-02-14T06:31:52;1.60;99.90
53711;DHT22;39605;52.704;6.752;2023-02-14T06:34:18;1.50;99.90
53711;DHT22;39605;52.704;6.752;2023-02-14T06:36:44;1.50;99.90
53711;DHT22;39605;52.704;6.752;2023-02-14T06:39:09;1.50;99.90
53711;DHT22;39605;52.704;6.752;2023-02-14T06:41:35;1.60;99.90
53711;DHT22;39605;52.704;6.752;2023-02-14T06:44:01;1.60;99.90
53711;DHT22;39605;52.704;6.752;2023-02-14T06:46:26;1.50;99.90
53711;DHT22;39605;52.704;6.752;2023-02-14T06:48:52;1.50;99.90
53711;DHT22;39605;52.704;6.752;2023-02-14T06:51:18;1.40;99.90
53711;DHT22;39605;52.704;6.752;2023-02-14T06:53:44;1.40;99.90
53711;DHT22;39605;52.704;6.752;2023-02-14T06:56:09;1.30;99.90
53711;DHT22;39605;52.704;6.752;2023-02-14T06:58:35;1.40;99.90
53711;DHT22;39605;52.704;6.752;2023-02-14T07:01:01;1.30;99.90
53711;DHT22;39605;52.704;6.752;2023-02-14T07:03:27;1.30;99.90
53711;DHT22;39605;52.704;6.752;2023-02-14T07:05:53;1.40;99.90
53711;DHT22;39605;52.704;6.752;2023-02-14T07:08:20;1.30;99.90
53711;DHT22;39605;52.704;6.752;2023-02-14T07:10:46;1.40;99.90
53711;DHT22;39605;52.704;6.752;2023-02-14T07:13:12;1.40;99.90
53711;DHT22;39605;52.704;6.752;2023-02-14T07:15:38;1.40;99.90
53711;DHT22;39605;52.704;6.752;2023-02-14T07:18:03;1.40;99.90
53711;DHT22;39605;52.704;6.752;2023-02-14T07:20:29;1.40;99.90
53711;DHT22;39605;52.704;6.752;2023-02-14T07:22:55;1.40;99.90
53711;DHT22;39605;52.704;6.752;2023-02-14T07:25:21;1.50;99.90
53711;DHT22;39605;52.704;6.752;2023-02-14T07:27:47;1.50;99.90
53711;DHT22;39605;52.704;6.752;2023-02-14T07:30:13;1.60;99.90
53711;DHT22;39605;52.704;6.752;2023-02-14T07:32:40;1.60;99.90
53711;DHT22;39605;52.704;6.752;2023-02-14T07:35:06;1.70;99.90
53711;DHT22;39605;52.704;6.752;2023-02-14T07:37:33;1.70;99.90
53711;DHT22;39605;52.704;6.752;2023-02-14T07:39:59;1.80;99.90
53711;DHT22;39605;52.704;6.752;2023-02-14T07:42:25;1.80;99.90
53711;DHT22;39605;52.704;6.752;2023-02-14T07:44:50;1.80;99.90
53711;DHT22;39605;52.704;6.752;2023-02-14T07:47:16;1.90;99.90
53711;DHT22;39605;52.704;6.752;2023-02-14T07:49:42;2.00;99.90
53711;DHT22;39605;52.704;6.752;2023-02-14T07:52:08;2.20;99.90
53711;DHT22;39605;52.704;6.752;2023-02-14T07:54:34;2.20;99.90
53711;DHT22;39605;52.704;6.752;2023-02-14T07:56:59;2.20;99.90
53711;DHT22;39605;52.704;6.752;2023-02-14T07:59:25;2.30;99.90
53711;DHT22;39605;52.704;6.752;2023-02-14T08:01:51;2.40;99.90
53711;DHT22;39605;52.704;6.752;2023-02-14T08:04:17;2.50;99.90
53711;DHT22;39605;52.704;6.752;2023-02-14T08:06:43;2.60;99.90
53711;DHT22;39605;52.704;6.752;2023-02-14T08:09:09;2.80;99.90
53711;DHT22;39605;52.704;6.752;2023-02-14T08:11:35;3.00;99.90
53711;DHT22;39605;52.704;6.752;2023-02-14T08:14:20;3.20;99.90
53711;DHT22;39605;52.704;6.752;2023-02-14T08:16:46;3.50;99.90
53711;DHT22;39605;52.704;6.752;2023-02-14T08:19:13;4.00;99.90
53711;DHT22;39605;52.704;6.752;2023-02-14T08:21:39;4.60;99.90
53711;DHT22;39605;52.704;6.752;2023-02-14T08:24:05;5.00;99.90
53711;DHT22;39605;52.704;6.752;2023-02-14T08:26:30;5.30;99.90
53711;DHT22;39605;52.704;6.752;2023-02-14T08:28:57;5.70;99.90
53711;DHT22;39605;52.704;6.752;2023-02-14T08:31:28;6.00;99.90
53711;DHT22;39605;52.704;6.752;2023-02-14T08:33:55;6.20;99.90
53711;DHT22;39605;52.704;6.752;2023-02-14T08:36:21;6.50;99.90
53711;DHT22;39605;52.704;6.752;2023-02-14T08:38:47;6.70;99.90
53711;DHT22;39605;52.704;6.752;2023-02-14T08:41:14;7.20;99.90
53711;DHT22;39605;52.704;6.752;2023-02-14T08:43:40;7.70;99.90
53711;DHT22;39605;52.704;6.752;2023-02-14T08:46:06;8.00;99.90
53711;DHT22;39605;52.704;6.752;2023-02-14T08:48:33;8.20;99.90
53711;DHT22;39605;52.704;6.752;2023-02-14T08:51:03;8.70;99.90
53711;DHT22;39605;52.704;6.752;2023-02-14T08:53:28;9.30;99.90
53711;DHT22;39605;52.704;6.752;2023-02-14T08:55:54;10.00;99.90
53711;DHT22;39605;52.704;6.752;2023-02-14T08:58:20;10.80;99.10
53711;DHT22;39605;52.704;6.752;2023-02-14T09:00:45;11.70;99.90
53711;DHT22;39605;52.704;6.752;2023-02-14T09:03:11;12.20;99.90
53711;DHT22;39605;52.704;6.752;2023-02-14T09:05:37;12.60;99.90
53711;DHT22;39605;52.704;6.752;2023-02-14T09:08:03;12.90;99.40
53711;DHT22;39605;52.704;6.752;2023-02-14T09:10:29;13.40;98.50
53711;DHT22;39605;52.704;6.752;2023-02-14T09:12:54;13.90;97.90
53711;DHT22;39605;52.704;6.752;2023-02-14T09:15:20;14.20;93.50
53711;DHT22;39605;52.704;6.752;2023-02-14T09:17:46;14.40;91.80
53711;DHT22;39605;52.704;6.752;2023-02-14T09:20:13;14.70;94.00
53711;DHT22;39605;52.704;6.752;2023-02-14T09:22:39;14.60;91.50
53711;DHT22;39605;52.704;6.752;2023-02-14T09:25:05;14.80;91.10
53711;DHT22;39605;52.704;6.752;2023-02-14T09:27:31;14.80;86.10
53711;DHT22;39605;52.704;6.752;2023-02-14T09:29:57;14.90;76.10
53711;DHT22;39605;52.704;6.752;2023-02-14T09:32:23;14.80;78.10
53711;DHT22;39605;52.704;6.752;2023-02-14T09:34:50;14.70;75.30
53711;DHT22;39605;52.704;6.752;2023-02-14T09:37:16;14.70;71.20
53711;DHT22;39605;52.704;6.752;2023-02-14T09:40:00;14.70;74.80
53711;DHT22;39605;52.704;6.752;2023-02-14T09:45:35;15.00;66.70
53711;DHT22;39605;52.704;6.752;2023-02-14T09:48:35;15.10;54.30
53711;DHT22;39605;52.704;6.752;2023-02-14T09:51:10;15.00;51.70
53711;DHT22;39605;52.704;6.752;2023-02-14T09:53:45;15.00;50.20
53711;DHT22;39605;52.704;6.752;2023-02-14T09:57:01;15.10;48.60
53711;DHT22;39605;52.704;6.752;2023-02-14T09:59:49;15.30;42.10
53711;DHT22;39605;52.704;6.752;2023-02-14T10:12:45;14.90;44.50
53711;DHT22;39605;52.704;6.752;2023-02-14T10:15:18;15.00;47.10
53711;DHT22;39605;52.704;6.752;2023-02-14T10:20:46;15.00;45.90
53711;DHT22;39605;52.704;6.752;2023-02-14T10:26:13;14.90;39.50
53711;DHT22;39605;52.704;6.752;2023-02-14T10:28:44;14.90;39.40
53711;DHT22;39605;52.704;6.752;2023-02-14T10:33:55;14.80;40.80
53711;DHT22;39605;52.704;6.752;2023-02-14T10:36:49;15.10;44.30
53711;DHT22;39605;52.704;6.752;2023-02-14T10:55:48;15.70;36.80
53711;DHT22;39605;52.704;6.752;2023-02-14T10:58:18;15.60;40.90
53711;DHT22;39605;52.704;6.752;2023-02-14T11:03:28;15.70;39.80
53711;DHT22;39605;52.704;6.752;2023-02-14T11:05:54;15.80;39.50
53711;DHT22;39605;52.704;6.752;2023-02-14T11:08:41;15.80;43.00
53711;DHT22;39605;52.704;6.752;2023-02-14T11:13:37;15.40;39.60
53711;DHT22;39605;52.704;6.752;2023-02-14T11:16:07;15.40;43.60
53711;DHT22;39605;52.704;6.752;2023-02-14T11:18:34;15.30;43.20
53711;DHT22;39605;52.704;6.752;2023-02-14T11:21:06;15.40;43.40
53711;DHT22;39605;52.704;6.752;2023-02-14T11:23:44;15.20;44.70
53711;DHT22;39605;52.704;6.752;2023-02-14T11:26:31;15.30;45.90
53711;DHT22;39605;52.704;6.752;2023-02-14T11:29:00;15.20;45.10
53711;DHT22;39605;52.704;6.752;2023-02-14T11:31:31;15.10;44.10
53711;DHT22;39605;52.704;6.752;2023-02-14T11:33:57;15.00;45.20
53711;DHT22;39605;52.704;6.752;2023-02-14T11:36:24;15.00;43.30
53711;DHT22;39605;52.704;6.752;2023-02-14T11:39:38;15.00;42.80
53711;DHT22;39605;52.704;6.752;2023-02-14T11:41:47;14.90;39.70
53711;DHT22;39605;52.704;6.752;2023-02-14T11:44:22;14.80;37.80
53711;DHT22;39605;52.704;6.752;2023-02-14T11:46:50;14.80;38.50
53711;DHT22;39605;52.704;6.752;2023-02-14T11:49:32;14.90;39.90
53711;DHT22;39605;52.704;6.752;2023-02-14T11:52:09;15.10;37.90
53711;DHT22;39605;52.704;6.752;2023-02-14T11:54:39;15.10;36.10
53711;DHT22;39605;52.704;6.752;2023-02-14T11:57:24;15.00;35.60
53711;DHT22;39605;52.704;6.752;2023-02-14T11:59:54;15.10;38.90
53711;DHT22;39605;52.704;6.752;2023-02-14T12:05:02;15.30;44.80
53711;DHT22;39605;52.704;6.752;2023-02-14T12:07:29;15.60;44.50
53711;DHT22;39605;52.704;6.752;2023-02-14T12:12:34;15.70;44.10
53711;DHT22;39605;52.704;6.752;2023-02-14T12:15:31;15.50;42.60
53711;DHT22;39605;52.704;6.752;2023-02-14T12:20:44;15.70;42.00
53711;DHT22;39605;52.704;6.752;2023-02-14T12:23:38;16.20;43.60
53711;DHT22;39605;52.704;6.752;2023-02-14T12:29:05;17.30;47.10
53711;DHT22;39605;52.704;6.752;2023-02-14T12:31:34;17.70;47.60
53711;DHT22;39605;52.704;6.752;2023-02-14T12:34:01;18.10;47.00
53711;DHT22;39605;52.704;6.752;2023-02-14T12:45:44;18.30;41.40
53711;DHT22;39605;52.704;6.752;2023-02-14T12:53:31;17.90;42.60
53711;DHT22;39605;52.704;6.752;2023-02-14T12:59:05;17.60;45.20
53711;DHT22;39605;52.704;6.752;2023-02-14T13:07:30;17.10;43.70
53711;DHT22;39605;52.704;6.752;2023-02-14T13:10:18;16.80;44.40
53711;DHT22;39605;52.704;6.752;2023-02-14T13:12:52;16.40;45.20
53711;DHT22;39605;52.704;6.752;2023-02-14T13:21:05;16.10;46.20
53711;DHT22;39605;52.704;6.752;2023-02-14T13:23:50;16.00;42.10
53711;DHT22;39605;52.704;6.752;2023-02-14T13:26:32;15.90;32.50
53711;DHT22;39605;52.704;6.752;2023-02-14T13:29:20;15.70;36.60
53711;DHT22;39605;52.704;6.752;2023-02-14T13:31:49;15.70;32.10
53711;DHT22;39605;52.704;6.752;2023-02-14T13:36:47;15.70;37.10
53711;DHT22;39605;52.704;6.752;2023-02-14T13:39:28;15.70;32.50
53711;DHT22;39605;52.704;6.752;2023-02-14T13:41:56;15.70;31.70
53711;DHT22;39605;52.704;6.752;2023-02-14T13:44:41;15.50;37.00
53711;DHT22;39605;52.704;6.752;2023-02-14T13:47:15;15.50;39.00
53711;DHT22;39605;52.704;6.752;2023-02-14T13:49:46;15.40;99.90
53711;DHT22;39605;52.704;6.752;2023-02-14T13:52:13;15.40;1.00
53711;DHT22;39605;52.704;6.752;2023-02-14T13:55:06;15.40;99.90
53711;DHT22;39605;52.704;6.752;2023-02-14T13:57:36;15.40;99.90
53711;DHT22;39605;52.704;6.752;2023-02-14T14:00:20;15.50;99.90
53711;DHT22;39605;52.704;6.752;2023-02-14T14:02:50;15.60;99.90
53711;DHT22;39605;52.704;6.752;2023-02-14T14:11:00;15.50;1.00
53711;DHT22;39605;52.704;6.752;2023-02-14T14:18:48;15.50;1.00
53711;DHT22;39605;52.704;6.752;2023-02-14T14:26:49;15.10;99.90
53711;DHT22;39605;52.704;6.752;2023-02-14T14:29:36;15.00;99.90
53711;DHT22;39605;52.704;6.752;2023-02-14T14:34:51;14.90;21.60
53711;DHT22;39605;52.704;6.752;2023-02-14T14:37:21;14.90;20.80
53711;DHT22;39605;52.704;6.752;2023-02-14T14:39:53;14.80;1.00
53711;DHT22;39605;52.704;6.752;2023-02-14T14:42:19;14.70;1.00
53711;DHT22;39605;52.704;6.752;2023-02-14T14:47:24;14.80;99.90
53711;DHT22;39605;52.704;6.752;2023-02-14T14:49:52;14.80;1.00
53711;DHT22;39605;52.704;6.752;2023-02-14T14:52:30;14.70;1.00
53711;DHT22;39605;52.704;6.752;2023-02-14T14:54:58;14.70;1.00
53711;DHT22;39605;52.704;6.752;2023-02-14T14:57:25;14.70;1.00
53711;DHT22;39605;52.704;6.752;2023-02-14T15:00:05;14.60;1.00
53711;DHT22;39605;52.704;6.752;2023-02-14T15:02:33;14.60;1.00
53711;DHT22;39605;52.704;6.752;2023-02-14T15:05:22;14.50;99.90
53711;DHT22;39605;52.704;6.752;2023-02-14T15:07:48;14.50;99.90
53711;DHT22;39605;52.704;6.752;2023-02-14T15:10:28;14.40;99.90
53711;DHT22;39605;52.704;6.752;2023-02-14T15:12:57;14.40;99.90
53711;DHT22;39605;52.704;6.752;2023-02-14T15:15:47;14.30;99.90
53711;DHT22;39605;52.704;6.752;2023-02-14T15:18:13;14.20;99.90
53711;DHT22;39605;52.704;6.752;2023-02-14T15:20:40;14.10;99.90
53711;DHT22;39605;52.704;6.752;2023-02-14T15:23:06;14.00;1.00
53711;DHT22;39605;52.704;6.752;2023-02-14T15:25:43;13.80;74.40
53711;DHT22;39605;52.704;6.752;2023-02-14T15:28:25;13.80;53.40
53711;DHT22;39605;52.704;6.752;2023-02-14T15:31:04;13.70;82.80
53711;DHT22;39605;52.704;6.752;2023-02-14T15:33:31;13.70;99.90
53711;DHT22;39605;52.704;6.752;2023-02-14T15:36:12;13.60;99.90
53711;DHT22;39605;52.704;6.752;2023-02-14T15:38:40;13.50;99.90
53711;DHT22;39605;52.704;6.752;2023-02-14T15:41:06;13.40;99.90
53711;DHT22;39605;52.704;6.752;2023-02-14T15:43:35;13.40;99.90
53711;DHT22;39605;52.704;6.752;2023-02-14T15:48:54;13.30;99.90
53711;DHT22;39605;52.704;6.752;2023-02-14T15:51:22;13.30;99.90
53711;DHT22;39605;52.704;6.752;2023-02-14T15:53:51;13.20;99.90
53711;DHT22;39605;52.704;6.752;2023-02-14T15:56:24;13.10;99.90
53711;DHT22;39605;52.704;6.752;2023-02-14T15:59:00;13.00;1.00
53711;DHT22;39605;52.704;6.752;2023-02-14T16:01:28;12.80;1.00
53711;DHT22;39605;52.704;6.752;2023-02-14T16:03:57;12.70;1.00
53711;DHT22;39605;52.704;6.752;2023-02-14T16:07:02;12.60;1.00
53711;DHT22;39605;52.704;6.752;2023-02-14T16:09:30;12.40;1.00
53711;DHT22;39605;52.704;6.752;2023-02-14T16:11:56;12.30;1.00
53711;DHT22;39605;52.704;6.752;2023-02-14T16:14:34;12.20;1.00
53711;DHT22;39605;52.704;6.752;2023-02-14T16:17:11;12.10;1.00
53711;DHT22;39605;52.704;6.752;2023-02-14T16:22:04;11.90;1.00
53711;DHT22;39605;52.704;6.752;2023-02-14T16:24:32;11.80;1.00
53711;DHT22;39605;52.704;6.752;2023-02-14T16:26:57;11.70;1.00
53711;DHT22;39605;52.704;6.752;2023-02-14T16:29:24;11.60;1.00
53711;DHT22;39605;52.704;6.752;2023-02-14T16:31:53;11.40;1.00
53711;DHT22;39605;52.704;6.752;2023-02-14T16:34:20;11.30;1.00
53711;DHT22;39605;52.704;6.752;2023-02-14T16:36:46;11.20;1.00
53711;DHT22;39605;52.704;6.752;2023-02-14T16:39:18;11.10;1.00
53711;DHT22;39605;52.704;6.752;2023-02-14T16:41:46;10.90;1.00
53711;DHT22;39605;52.704;6.752;2023-02-14T16:44:17;10.80;5.80
53711;DHT22;39605;52.704;6.752;2023-02-14T16:46:43;10.70;6.90
53711;DHT22;39605;52.704;6.752;2023-02-14T16:49:10;10.70;5.50
53711;DHT22;39605;52.704;6.752;2023-02-14T16:51:38;10.50;6.30
53711;DHT22;39605;52.704;6.752;2023-02-14T16:54:09;10.40;11.70
53711;DHT22;39605;52.704;6.752;2023-02-14T16:56:56;10.30;15.90
53711;DHT22;39605;52.704;6.752;2023-02-14T16:59:23;10.20;22.60
53711;DHT22;39605;52.704;6.752;2023-02-14T17:01:49;10.10;30.00
53711;DHT22;39605;52.704;6.752;2023-02-14T17:04:15;10.00;38.50
53711;DHT22;39605;52.704;6.752;2023-02-14T17:06:44;10.00;39.70
53711;DHT22;39605;52.704;6.752;2023-02-14T17:09:14;9.90;37.80
53711;DHT22;39605;52.704;6.752;2023-02-14T17:11:45;9.80;33.50
53711;DHT22;39605;52.704;6.752;2023-02-14T17:14:18;9.70;30.00
53711;DHT22;39605;52.704;6.752;2023-02-14T17:16:47;9.70;30.70
53711;DHT22;39605;52.704;6.752;2023-02-14T17:19:13;9.60;38.60
53711;DHT22;39605;52.704;6.752;2023-02-14T17:21:39;9.40;43.00
53711;DHT22;39605;52.704;6.752;2023-02-14T17:24:05;9.20;48.80
53711;DHT22;39605;52.704;6.752;2023-02-14T17:26:31;9.10;52.50
53711;DHT22;39605;52.704;6.752;2023-02-14T17:28:58;9.00;59.60
53711;DHT22;39605;52.704;6.752;2023-02-14T17:31:24;8.90;62.40
53711;DHT22;39605;52.704;6.752;2023-02-14T17:33:49;8.80;60.20
53711;DHT22;39605;52.704;6.752;2023-02-14T17:36:15;8.80;58.10
53711;DHT22;39605;52.704;6.752;2023-02-14T17:38:41;8.70;58.50
53711;DHT22;39605;52.704;6.752;2023-02-14T17:41:18;8.70;60.90
53711;DHT22;39605;52.704;6.752;2023-02-14T17:43:46;8.60;56.30
53711;DHT22;39605;52.704;6.752;2023-02-14T17:46:13;8.50;55.40
53711;DHT22;39605;52.704;6.752;2023-02-14T17:48:40;8.50;55.50
53711;DHT22;39605;52.704;6.752;2023-02-14T17:51:08;8.40;55.80
53711;DHT22;39605;52.704;6.752;2023-02-14T17:53:34;8.40;55.50
53711;DHT22;39605;52.704;6.752;2023-02-14T17:56:11;8.30;54.90
53711;DHT22;39605;52.704;6.752;2023-02-14T17:58:38;8.10;69.00
53711;DHT22;39605;52.704;6.752;2023-02-14T18:01:09;8.10;66.80
53711;DHT22;39605;52.704;6.752;2023-02-14T18:03:36;8.00;65.80
53711;DHT22;39605;52.704;6.752;2023-02-14T18:06:02;8.00;63.80
53711;DHT22;39605;52.704;6.752;2023-02-14T18:08:30;7.90;66.00
53711;DHT22;39605;52.704;6.752;2023-02-14T18:10:56;7.80;67.80
53711;DHT22;39605;52.704;6.752;2023-02-14T18:13:23;7.70;66.10
53711;DHT22;39605;52.704;6.752;2023-02-14T18:15:49;7.70;66.40
53711;DHT22;39605;52.704;6.752;2023-02-14T18:18:15;7.70;65.10
53711;DHT22;39605;52.704;6.752;2023-02-14T18:20:41;7.60;65.60
53711;DHT22;39605;52.704;6.752;2023-02-14T18:23:07;7.60;66.30
53711;DHT22;39605;52.704;6.752;2023-02-14T18:25:34;7.50;68.20
53711;DHT22;39605;52.704;6.752;2023-02-14T18:27:59;7.40;69.40
53711;DHT22;39605;52.704;6.752;2023-02-14T18:30:25;7.30;72.60
53711;DHT22;39605;52.704;6.752;2023-02-14T18:32:52;7.30;72.40
53711;DHT22;39605;52.704;6.752;2023-02-14T18:35:18;7.30;70.50
53711;DHT22;39605;52.704;6.752;2023-02-14T18:37:44;7.30;71.20